createdAt,value
2018-02-23T15:19:39.721Z,44.1
2018-02-23T15:21:13.346Z,44.8
2018-02-23T15:22:15.725Z,46.1
2018-02-23T15:23:18.380Z,45.8
2018-02-23T15:24:20.752Z,46
2018-02-23T15:25:23.405Z,46
2018-02-23T15:26:25.775Z,46
2018-02-23T15:27:28.147Z,46
2018-02-23T15:28:30.520Z,46
2018-02-23T15:29:32.895Z,46
2018-02-23T15:30:35.267Z,46
2018-02-23T15:31:37.642Z,46
2018-02-23T15:32:40.011Z,45.9
2018-02-23T15:33:42.384Z,45.8
2018-02-23T15:34:44.758Z,45.8
2018-02-23T15:35:47.123Z,45.8
2018-02-23T15:36:49.499Z,45.8
2018-02-23T15:37:51.881Z,46
2018-02-23T15:38:54.523Z,45.8
2018-02-23T15:39:56.899Z,45.7
2018-02-23T15:40:59.276Z,45.8
2018-02-23T15:42:01.646Z,45.9
2018-02-23T15:43:04.018Z,45.9
2018-02-23T15:44:06.694Z,46.1
2018-02-23T15:45:09.056Z,46.1
2018-02-23T15:46:11.444Z,46.2
2018-02-23T15:47:14.112Z,46
2018-02-23T15:48:16.478Z,46.1
2018-02-23T15:49:19.152Z,46.3
2018-02-23T15:50:21.532Z,46.1
2018-02-23T15:51:24.171Z,46
2018-02-23T15:52:26.544Z,46
2018-02-23T15:53:28.905Z,46
2018-02-23T15:54:31.277Z,46
2018-02-23T15:55:33.631Z,46.1
2018-02-23T15:56:36.003Z,46.2
2018-02-23T15:57:38.384Z,46.3
2018-02-23T15:58:40.753Z,46.2
2018-02-23T15:59:43.129Z,46.4
2018-02-23T16:00:45.496Z,46.5
2018-02-23T16:01:47.865Z,46.5
2018-02-23T16:02:50.526Z,46.4
2018-02-23T16:03:52.893Z,46.4
2018-02-23T16:04:55.254Z,46.4
2018-02-23T16:05:57.636Z,46.4
2018-02-23T16:07:00.004Z,46.6
2018-02-23T16:08:02.659Z,46.6
2018-02-23T16:09:05.314Z,46.6
2018-02-23T16:10:07.677Z,46.5
2018-02-23T16:11:10.043Z,46.6
2018-02-23T16:12:12.429Z,46.7
2018-02-23T16:13:15.071Z,46.7
2018-02-23T16:14:17.743Z,46.8
2018-02-23T16:15:20.119Z,46.8
2018-02-23T16:16:22.782Z,46.7
2018-02-23T16:17:25.162Z,46.8
2018-02-23T16:18:27.822Z,46.9
2018-02-23T16:19:30.508Z,46.9
2018-02-23T16:20:32.821Z,46.8
2018-02-23T16:21:35.216Z,46.8
2018-02-23T16:22:37.867Z,46.8
2018-02-23T16:23:40.277Z,47
2018-02-23T16:24:42.886Z,47
2018-02-23T16:25:45.262Z,46.8
2018-02-23T16:26:47.634Z,46.8
2018-02-23T16:27:50.299Z,46.9
2018-02-23T16:28:52.944Z,47
2018-02-23T16:29:55.308Z,47.1
2018-02-23T16:30:57.693Z,47.1
2018-02-23T16:32:00.062Z,47.1
2018-02-23T16:33:02.717Z,47.2
2018-02-23T16:34:05.083Z,47.2
2018-02-23T16:35:07.451Z,47.1
2018-02-23T16:36:10.134Z,47.1
2018-02-23T16:37:12.499Z,47.1
2018-02-23T16:38:14.869Z,47.1
2018-02-23T16:39:17.528Z,47.1
2018-02-23T16:40:19.902Z,47.1
2018-02-23T16:41:22.264Z,46.9
2018-02-23T16:42:24.644Z,47.1
2018-02-23T16:43:27.003Z,46.9
2018-02-23T16:44:29.378Z,46.9
2018-02-23T16:45:31.767Z,47
2018-02-23T16:46:34.421Z,47.1
2018-02-23T16:47:36.799Z,47.1
2018-02-23T16:48:39.168Z,47.2
2018-02-23T16:49:41.535Z,47.2
2018-02-23T16:50:44.186Z,47.1
2018-02-23T16:51:46.558Z,47
2018-02-23T16:52:49.217Z,47.1
2018-02-23T16:53:51.877Z,47.1
2018-02-23T16:54:54.230Z,47.2
2018-02-23T16:55:56.612Z,47.1
2018-02-23T16:56:58.981Z,47.2
2018-02-23T16:58:01.350Z,47.3
2018-02-23T16:59:03.710Z,47.4
2018-02-23T17:00:06.358Z,47.3
2018-02-23T17:01:09.021Z,47.4
2018-02-23T17:02:11.392Z,47.5
2018-02-23T17:03:13.756Z,47.6
2018-02-23T17:04:16.124Z,47.6
2018-02-23T17:05:18.498Z,47.6
2018-02-23T17:06:20.869Z,47.6
2018-02-23T17:07:23.244Z,47.4
2018-02-23T17:08:25.604Z,47.5
2018-02-23T17:09:27.964Z,47.5
2018-02-23T17:10:30.339Z,47.6
2018-02-23T17:11:32.984Z,47.6
2018-02-23T17:12:35.359Z,47.6
2018-02-23T17:13:37.731Z,47.6
2018-02-23T17:14:40.373Z,47.6
2018-02-23T17:15:42.750Z,47.6
2018-02-23T17:16:45.161Z,47.7
2018-02-23T17:17:47.489Z,47.7
2018-02-23T17:18:49.850Z,47.6
2018-02-23T17:19:52.216Z,47.7
2018-02-23T17:20:54.577Z,47.7
2018-02-23T17:21:56.947Z,47.6
2018-02-23T17:22:59.320Z,47.6
2018-02-23T17:24:01.980Z,47.6
2018-02-23T17:25:04.352Z,47.6
2018-02-23T17:26:06.709Z,47.7
2018-02-23T17:27:09.092Z,47.7
2018-02-23T17:28:11.742Z,47.8
2018-02-23T17:29:14.108Z,47.7
2018-02-23T17:30:17.048Z,47.7
2018-02-23T17:31:19.699Z,47.7
2018-02-23T17:32:22.067Z,47.7
2018-02-23T17:33:24.444Z,47.7
2018-02-23T17:34:27.096Z,47.8
2018-02-23T17:35:29.483Z,47.9
2018-02-23T17:36:31.868Z,47.8
2018-02-23T17:37:34.517Z,47.7
2018-02-23T17:38:36.899Z,47.8
2018-02-23T17:39:39.279Z,47.9
2018-02-23T17:40:41.928Z,47.9
2018-02-23T17:41:44.317Z,47.8
2018-02-23T17:42:46.678Z,47.8
2018-02-23T17:43:49.045Z,47.8
2018-02-23T17:44:51.438Z,47.9
2018-02-23T17:45:53.810Z,47.8
2018-02-23T17:46:56.202Z,47.9
2018-02-23T17:47:58.580Z,47.8
2018-02-23T17:49:00.958Z,47.8
2018-02-23T17:50:03.679Z,47.7
2018-02-23T17:51:06.052Z,47.9
2018-02-23T17:52:08.439Z,48
2018-02-23T17:53:10.814Z,47.7
2018-02-23T17:54:13.473Z,47.8
2018-02-23T17:55:15.844Z,47.9
2018-02-23T17:56:18.219Z,47.8
2018-02-23T17:57:20.601Z,48
2018-02-23T17:58:22.974Z,47.9
2018-02-23T17:59:25.618Z,47.8
2018-02-23T18:00:28.263Z,47.8
2018-02-23T18:01:30.636Z,48
2018-02-23T18:02:33.068Z,48
2018-02-23T18:03:35.437Z,48
2018-02-23T18:04:37.817Z,47.9
2018-02-23T18:05:40.510Z,47.9
2018-02-23T18:06:42.893Z,48
2018-02-23T18:07:45.274Z,47.9
2018-02-23T18:08:47.650Z,48
2018-02-23T18:09:50.029Z,48
2018-02-23T18:10:52.418Z,48.1
2018-02-23T18:11:54.796Z,48.2
2018-02-23T18:12:57.459Z,48.3
2018-02-23T18:13:59.840Z,48.4
2018-02-23T18:15:02.505Z,48.4
2018-02-23T18:16:04.869Z,48.4
2018-02-23T18:17:07.239Z,48.3
2018-02-23T18:18:09.602Z,48.3
2018-02-23T18:19:11.974Z,48.4
2018-02-23T18:20:14.345Z,48.4
2018-02-23T18:21:16.707Z,48.4
2018-02-23T18:22:19.066Z,48.5
2018-02-23T18:23:21.454Z,48.4
2018-02-23T18:24:23.827Z,48.4
2018-02-23T18:25:26.465Z,48.5
2018-02-23T18:26:28.846Z,48.4
2018-02-23T18:27:31.211Z,48.5
2018-02-23T18:28:33.582Z,48.5
2018-02-23T18:29:36.560Z,48.5
2018-02-23T18:30:38.888Z,48.5
2018-02-23T18:31:41.258Z,48.5
2018-02-23T18:32:43.635Z,48.5
2018-02-23T18:33:46.003Z,48.4
2018-02-23T18:34:48.363Z,48.4
2018-02-23T18:35:50.734Z,48.3
2018-02-23T18:36:53.404Z,48.2
2018-02-23T18:37:55.772Z,48.3
2018-02-23T18:38:58.135Z,48.3
2018-02-23T18:40:00.496Z,48.4
2018-02-23T18:41:02.866Z,48.4
2018-02-23T18:42:05.229Z,48.4
2018-02-23T18:43:07.591Z,48.4
2018-02-23T18:44:09.966Z,48.5
2018-02-23T18:45:12.335Z,48.5
2018-02-23T18:46:14.708Z,48.6
2018-02-23T18:47:17.075Z,48.6
2018-02-23T18:48:19.452Z,48.6
2018-02-23T18:49:21.804Z,48.5
2018-02-23T18:50:24.170Z,48.6
2018-02-23T18:51:26.546Z,48.7
2018-02-23T18:52:28.909Z,48.6
2018-02-23T18:53:31.280Z,48.6
2018-02-23T18:54:33.938Z,48.7
2018-02-23T18:55:36.296Z,48.6
2018-02-23T18:56:38.676Z,48.6
2018-02-23T18:57:41.048Z,48.6
2018-02-23T18:58:43.424Z,48.6
2018-02-23T18:59:45.793Z,48.7
2018-02-23T19:00:48.170Z,48.8
2018-02-23T19:01:50.804Z,48.8
2018-02-23T19:02:53.180Z,48.7
2018-02-23T19:03:55.540Z,48.6
2018-02-23T19:04:57.920Z,48.6
2018-02-23T19:06:00.296Z,48.6
2018-02-23T19:07:02.945Z,48.7
2018-02-23T19:08:05.300Z,48.6
2018-02-23T19:09:07.665Z,48.8
2018-02-23T19:10:10.036Z,48.8
2018-02-23T19:11:12.768Z,48.8
2018-02-23T19:12:15.408Z,48.8
2018-02-23T19:13:17.773Z,48.8
2018-02-23T19:14:20.143Z,48.8
2018-02-23T19:15:22.525Z,48.8
2018-02-23T19:16:24.893Z,48.8
2018-02-23T19:17:27.250Z,49
2018-02-23T19:18:29.623Z,49
2018-02-23T19:19:31.989Z,48.9
2018-02-23T19:20:34.647Z,48.9
2018-02-23T19:21:37.008Z,48.8
2018-02-23T19:22:39.370Z,48.8
2018-02-23T19:23:41.754Z,48.7
2018-02-23T19:24:44.116Z,48.7
2018-02-23T19:25:46.490Z,48.7
2018-02-23T19:26:48.853Z,48.7
2018-02-23T19:27:51.214Z,48.7
2018-02-23T19:28:53.580Z,48.7
2018-02-23T19:29:55.953Z,48.8
2018-02-23T19:30:58.309Z,48.8
2018-02-23T19:32:00.667Z,48.8
2018-02-23T19:33:03.608Z,48.9
2018-02-23T19:34:05.964Z,48.9
2018-02-23T19:35:08.330Z,49
2018-02-23T19:36:10.697Z,48.9
2018-02-23T19:37:13.358Z,48.8
2018-02-23T19:38:15.726Z,48.9
2018-02-23T19:39:18.094Z,49.1
2018-02-23T19:40:20.463Z,49
2018-02-23T19:41:23.121Z,49.1
2018-02-23T19:42:25.489Z,49.1
2018-02-23T19:43:27.857Z,49.1
2018-02-23T19:44:30.233Z,49.2
2018-02-23T19:45:32.599Z,49.1
2018-02-23T19:46:35.250Z,49
2018-02-23T19:47:37.608Z,49
2018-02-23T19:48:39.990Z,49.2
2018-02-23T19:49:42.353Z,49
2018-02-23T19:50:44.720Z,49.2
2018-02-23T19:51:47.102Z,49.2
2018-02-23T19:52:49.467Z,49.2
2018-02-23T19:53:51.832Z,49.2
2018-02-23T19:54:54.500Z,49.2
2018-02-23T19:55:57.031Z,49.2
2018-02-23T19:57:00.129Z,49.2
2018-02-23T19:58:03.069Z,49.1
2018-02-23T19:59:06.676Z,49.1
2018-02-23T20:00:12.396Z,49.2
2018-02-23T20:01:18.220Z,49.2
2018-02-23T20:02:21.955Z,49.2
2018-02-23T20:03:25.668Z,49.2
2018-02-23T20:04:28.911Z,49.3
2018-02-23T20:05:31.967Z,49.2
2018-02-23T20:06:36.942Z,49.2
2018-02-23T20:07:40.640Z,49.3
2018-02-23T20:08:43.677Z,49.2
2018-02-23T20:09:46.199Z,49.2
2018-02-23T20:10:48.625Z,49.4
2018-02-23T20:11:50.992Z,49.4
2018-02-23T20:12:53.373Z,49.4
2018-02-23T20:13:55.726Z,49.4
2018-02-23T20:14:58.096Z,49.6
2018-02-23T20:16:00.459Z,49.6
2018-02-23T20:17:02.829Z,49.6
2018-02-23T20:18:05.218Z,49.6
2018-02-23T20:19:07.917Z,49.6
2018-02-23T20:20:10.285Z,49.6
2018-02-23T20:21:12.666Z,49.7
2018-02-23T20:22:15.303Z,49.6
2018-02-23T20:23:17.674Z,49.6
2018-02-23T20:24:20.051Z,49.6
2018-02-23T20:25:22.409Z,49.5
2018-02-23T20:26:24.772Z,49.4
2018-02-23T20:27:27.142Z,49.4
2018-02-23T20:28:29.501Z,49.5
2018-02-23T20:29:31.884Z,49.5
2018-02-23T20:30:34.250Z,49.6
2018-02-23T20:31:36.610Z,49.6
2018-02-23T20:32:39.267Z,49.6
2018-02-23T20:33:41.628Z,49.7
2018-02-23T20:34:44.289Z,49.6
2018-02-23T20:35:46.937Z,49.6
2018-02-23T20:36:49.300Z,49.7
2018-02-23T20:37:51.953Z,49.7
2018-02-23T20:38:54.619Z,49.7
2018-02-23T20:39:56.973Z,49.7
2018-02-23T20:40:59.351Z,49.7
2018-02-23T20:42:01.713Z,49.6
2018-02-23T20:43:04.077Z,49.5
2018-02-23T20:44:06.453Z,49.6
2018-02-23T20:45:08.822Z,49.6
2018-02-23T20:46:11.459Z,49.6
2018-02-23T20:47:13.836Z,49.7
2018-02-23T20:48:16.196Z,49.6
2018-02-23T20:49:18.570Z,49.7
2018-02-23T20:50:20.934Z,49.7
2018-02-23T20:51:23.330Z,49.7
2018-02-23T20:52:25.684Z,49.6
2018-02-23T20:53:28.040Z,49.7
2018-02-23T20:54:30.410Z,49.7
2018-02-23T20:55:32.775Z,49.6
2018-02-23T20:56:35.294Z,49.6
2018-02-23T20:57:37.655Z,49.7
2018-02-23T20:58:40.306Z,49.6
2018-02-23T20:59:42.682Z,49.6
2018-02-23T21:00:45.345Z,49.6
2018-02-23T21:01:47.706Z,49.6
2018-02-23T21:02:50.072Z,49.6
2018-02-23T21:03:52.726Z,49.6
2018-02-23T21:04:55.084Z,49.5
2018-02-23T21:05:57.448Z,49.5
2018-02-23T21:06:59.820Z,49.6
2018-02-23T21:08:02.188Z,49.6
2018-02-23T21:09:04.554Z,49.6
2018-02-23T21:10:07.206Z,49.6
2018-02-23T21:11:09.564Z,49.6
2018-02-23T21:12:12.507Z,49.6
2018-02-23T21:13:14.878Z,49.6
2018-02-23T21:14:17.522Z,49.6
2018-02-23T21:15:19.892Z,49.6
2018-02-23T21:16:22.544Z,49.6
2018-02-23T21:17:24.911Z,49.8
2018-02-23T21:18:27.561Z,49.8
2018-02-23T21:19:30.200Z,49.8
2018-02-23T21:20:32.564Z,49.8
2018-02-23T21:21:35.225Z,49.8
2018-02-23T21:22:37.583Z,49.8
2018-02-23T21:23:39.960Z,49.9
2018-02-23T21:24:42.313Z,49.9
2018-02-23T21:25:45.269Z,49.9
2018-02-23T21:26:47.642Z,50
2018-02-23T21:27:50.016Z,49.9
2018-02-23T21:28:52.665Z,49.8
2018-02-23T21:29:55.033Z,49.8
2018-02-23T21:30:57.409Z,49.8
2018-02-23T21:32:00.062Z,49.8
2018-02-23T21:33:02.430Z,49.9
2018-02-23T21:34:04.791Z,49.9
2018-02-23T21:35:07.162Z,49.8
2018-02-23T21:36:09.538Z,50
2018-02-23T21:37:11.896Z,50
2018-02-23T21:38:14.547Z,50
2018-02-23T21:39:16.910Z,49.9
2018-02-23T21:40:19.285Z,50
2018-02-23T21:41:21.660Z,49.9
2018-02-23T21:42:24.024Z,50
2018-02-23T21:43:26.381Z,50
2018-02-23T21:44:28.760Z,50
2018-02-23T21:45:31.133Z,49.9
2018-02-23T21:46:33.794Z,50
2018-02-23T21:47:36.153Z,50
2018-02-23T21:48:38.520Z,50
2018-02-23T21:49:40.883Z,50
2018-02-23T21:50:43.247Z,50
2018-02-23T21:51:45.608Z,50
2018-02-23T21:52:47.981Z,50
2018-02-23T21:53:50.386Z,50
2018-02-23T21:54:52.719Z,50
2018-02-23T21:55:55.083Z,50.1
2018-02-23T21:56:57.451Z,50
2018-02-23T21:58:00.100Z,50
2018-02-23T21:59:02.468Z,50.2
2018-02-23T22:00:04.834Z,50
2018-02-23T22:01:07.205Z,50
2018-02-23T22:02:09.843Z,50
2018-02-23T22:03:12.218Z,50
2018-02-23T22:04:14.588Z,50
2018-02-23T22:05:16.945Z,50.1
2018-02-23T22:06:19.312Z,50.1
2018-02-23T22:07:21.689Z,50.1
2018-02-23T22:08:24.317Z,50.1
2018-02-23T22:09:26.700Z,50.1
2018-02-23T22:10:29.066Z,50.1
2018-02-23T22:11:31.427Z,50.1
2018-02-23T22:12:33.802Z,50.2
2018-02-23T22:13:36.166Z,50.2
2018-02-23T22:14:38.526Z,50.2
2018-02-23T22:15:41.175Z,50.2
2018-02-23T22:16:43.546Z,50.1
2018-02-23T22:17:45.905Z,50.2
2018-02-23T22:18:48.549Z,50.2
2018-02-23T22:19:50.914Z,50.2
2018-02-23T22:20:53.293Z,50.2
2018-02-23T22:21:55.661Z,50.2
2018-02-23T22:22:58.035Z,50.2
2018-02-23T22:24:00.396Z,50.2
2018-02-23T22:25:02.775Z,50.1
2018-02-23T22:26:05.144Z,50
2018-02-23T22:27:07.510Z,50
2018-02-23T22:28:10.148Z,50
2018-02-23T22:29:12.520Z,50.1
2018-02-23T22:30:14.884Z,50.2
2018-02-23T22:31:17.255Z,50.2
2018-02-23T22:32:19.621Z,50.3
2018-02-23T22:33:21.984Z,50.2
2018-02-23T22:34:24.339Z,50.3
2018-02-23T22:35:26.715Z,50.3
2018-02-23T22:36:29.070Z,50.4
2018-02-23T22:37:31.433Z,50.4
2018-02-23T22:38:33.795Z,50.4
2018-02-23T22:39:36.168Z,50.4
2018-02-23T22:40:38.536Z,50.4
2018-02-23T22:41:40.914Z,50.5
2018-02-23T22:42:43.267Z,50.6
2018-02-23T22:43:45.635Z,50.6
2018-02-23T22:44:48.007Z,50.6
2018-02-23T22:45:50.646Z,50.6
2018-02-23T22:46:53.007Z,50.6
2018-02-23T22:47:55.375Z,50.6
2018-02-23T22:48:57.743Z,50.6
2018-02-23T22:50:00.109Z,50.5
2018-02-23T22:51:02.475Z,50.4
2018-02-23T22:52:04.859Z,50.4
2018-02-23T22:53:07.217Z,50.4
2018-02-23T22:54:09.592Z,50.4
2018-02-23T22:55:11.951Z,50.5
2018-02-23T22:56:14.597Z,50.4
2018-02-23T22:57:16.969Z,50.4
2018-02-23T22:58:19.336Z,50.4
2018-02-23T22:59:21.979Z,50.4
2018-02-23T23:00:24.348Z,50.5
2018-02-23T23:01:27.009Z,50.4
2018-02-23T23:02:29.649Z,50.5
2018-02-23T23:03:32.300Z,50.4
2018-02-23T23:04:34.659Z,50.5
2018-02-23T23:05:37.024Z,50.5
2018-02-23T23:06:39.401Z,50.6
2018-02-23T23:07:41.767Z,50.5
2018-02-23T23:08:44.140Z,50.6
2018-02-23T23:09:46.505Z,50.7
2018-02-23T23:10:48.871Z,50.6
2018-02-23T23:11:51.524Z,50.6
2018-02-23T23:12:53.890Z,50.5
2018-02-23T23:13:56.243Z,50.7
2018-02-23T23:14:58.614Z,50.7
2018-02-23T23:16:00.973Z,50.7
2018-02-23T23:17:03.342Z,50.7
2018-02-23T23:18:06.006Z,50.8
2018-02-23T23:19:08.651Z,50.8
2018-02-23T23:20:11.023Z,50.8
2018-02-23T23:21:13.387Z,50.8
2018-02-23T23:22:15.759Z,50.7
2018-02-23T23:23:18.130Z,50.7
2018-02-23T23:24:20.498Z,50.7
2018-02-23T23:25:22.846Z,50.7
2018-02-23T23:26:25.218Z,50.8
2018-02-23T23:27:27.579Z,50.8
2018-02-23T23:28:29.957Z,50.8
2018-02-23T23:29:32.319Z,50.8
2018-02-23T23:30:34.679Z,50.6
2018-02-23T23:31:37.036Z,50.7
2018-02-23T23:32:39.416Z,50.7
2018-02-23T23:33:41.782Z,50.8
2018-02-23T23:34:44.142Z,50.7
2018-02-23T23:35:46.515Z,50.7
2018-02-23T23:36:48.876Z,50.8
2018-02-23T23:37:51.250Z,50.8
2018-02-23T23:38:53.623Z,50.8
2018-02-23T23:39:55.984Z,50.8
2018-02-23T23:40:58.351Z,50.8
2018-02-23T23:42:01.027Z,50.7
2018-02-23T23:43:03.724Z,50.7
2018-02-23T23:44:06.083Z,50.8
2018-02-23T23:45:08.453Z,50.8
2018-02-23T23:46:10.831Z,50.7
2018-02-23T23:47:13.192Z,50.7
2018-02-23T23:48:15.558Z,50.7
2018-02-23T23:49:17.936Z,50.7
2018-02-23T23:50:20.291Z,50.6
2018-02-23T23:51:22.665Z,50.6
2018-02-23T23:52:25.037Z,50.6
2018-02-23T23:53:27.399Z,50.7
2018-02-23T23:54:29.769Z,50.6
2018-02-23T23:55:32.420Z,50.6
2018-02-23T23:56:34.780Z,50.6
2018-02-23T23:57:37.434Z,50.6
2018-02-23T23:58:40.088Z,50.7
2018-02-23T23:59:42.450Z,50.7
